createdAt,value
2019-05-13T00:01:53.961Z,8.40
2019-05-13T00:04:24.210Z,8.40
2019-05-13T00:06:55.150Z,8.40
2019-05-13T00:09:24.472Z,8.40
2019-05-13T00:11:54.023Z,8.40
2019-05-13T00:14:23.953Z,8.40
2019-05-13T00:16:53.670Z,8.40
2019-05-13T00:19:23.330Z,8.40
2019-05-13T00:21:54.469Z,8.40
2019-05-13T00:24:24.257Z,8.40
2019-05-13T00:26:53.269Z,8.40
2019-05-13T00:29:23.457Z,8.40
2019-05-13T00:31:54.030Z,8.50
2019-05-13T00:34:24.371Z,8.50
2019-05-13T00:37:07.310Z,8.50
2019-05-13T00:39:24.591Z,8.50
2019-05-13T00:41:53.792Z,8.50
2019-05-13T00:44:24.394Z,8.50
2019-05-13T00:46:53.898Z,8.50
2019-05-13T00:49:23.894Z,8.60
2019-05-13T00:51:53.398Z,8.50
2019-05-13T00:54:23.666Z,8.60
2019-05-13T00:56:54.802Z,8.60
2019-05-13T00:59:24.272Z,8.50
2019-05-13T01:01:53.446Z,8.60
2019-05-13T01:04:23.292Z,8.60
2019-05-13T01:06:53.745Z,8.60
2019-05-13T01:09:23.731Z,8.60
2019-05-13T01:11:53.702Z,8.60
2019-05-13T01:14:23.591Z,8.60
2019-05-13T01:16:54.417Z,8.60
2019-05-13T01:19:23.778Z,8.60
2019-05-13T01:21:54.050Z,8.60
2019-05-13T01:24:24.398Z,8.60
2019-05-13T01:26:54.274Z,8.60
2019-05-13T01:29:23.906Z,8.60
2019-05-13T01:31:53.866Z,8.70
2019-05-13T01:34:25.080Z,8.60
2019-05-13T01:36:53.692Z,8.60
2019-05-13T01:39:24.279Z,8.60
2019-05-13T01:41:54.044Z,8.60
2019-05-13T01:44:24.391Z,8.60
2019-05-13T01:46:53.866Z,8.60
2019-05-13T01:49:24.143Z,8.60
2019-05-13T01:51:54.214Z,8.60
2019-05-13T01:54:24.669Z,8.50
2019-05-13T01:56:54.029Z,8.50
2019-05-13T01:59:23.902Z,8.50
2019-05-13T02:01:54.037Z,8.50
2019-05-13T02:04:24.430Z,8.50
2019-05-13T02:06:54.313Z,8.50
2019-05-13T02:09:24.548Z,8.50
2019-05-13T02:11:53.819Z,8.50
2019-05-13T02:14:23.712Z,8.50
2019-05-13T02:16:53.574Z,8.50
2019-05-13T02:19:24.514Z,8.40
2019-05-13T02:21:54.301Z,8.40
2019-05-13T02:24:23.774Z,8.40
2019-05-13T02:26:54.292Z,8.40
2019-05-13T02:29:24.458Z,8.30
2019-05-13T02:31:56.321Z,8.30
2019-05-13T02:34:24.196Z,8.20
2019-05-13T02:36:53.292Z,8.20
2019-05-13T02:39:22.548Z,8.20
2019-05-13T02:41:52.652Z,8.20
2019-05-13T02:44:22.544Z,8.20
2019-05-13T02:46:52.551Z,8.10
2019-05-13T02:49:23.113Z,8.10
2019-05-13T02:51:54.743Z,8.10
2019-05-13T02:54:23.320Z,8.10
2019-05-13T02:56:52.787Z,8.10
2019-05-13T02:59:22.849Z,8.10
2019-05-13T03:01:53.458Z,8.00
2019-05-13T03:04:23.598Z,7.90
2019-05-13T03:06:52.877Z,7.90
2019-05-13T03:09:22.917Z,7.80
2019-05-13T03:11:53.680Z,7.80
2019-05-13T03:14:24.143Z,7.70
2019-05-13T03:17:03.250Z,7.70
2019-05-13T03:19:33.210Z,7.70
2019-05-13T03:22:03.272Z,7.70
2019-05-13T03:24:33.345Z,7.80
2019-05-13T03:27:02.883Z,7.80
2019-05-13T03:29:32.939Z,7.70
2019-05-13T03:32:06.433Z,7.70
2019-05-13T03:34:36.129Z,7.70
2019-05-13T03:37:06.361Z,7.70
2019-05-13T03:39:37.633Z,7.70
2019-05-13T03:42:06.350Z,7.60
2019-05-13T03:44:36.885Z,7.70
2019-05-13T03:47:06.483Z,7.60
2019-05-13T03:49:36.089Z,7.60
2019-05-13T03:52:05.615Z,7.70
2019-05-13T03:54:35.446Z,7.60
2019-05-13T03:57:04.356Z,7.60
2019-05-13T03:59:33.931Z,7.70
2019-05-13T04:02:03.458Z,7.70
2019-05-13T04:04:32.798Z,7.70
2019-05-13T04:07:02.986Z,7.70
2019-05-13T04:09:36.522Z,7.70
2019-05-13T04:12:04.079Z,7.70
2019-05-13T04:14:33.824Z,7.70
2019-05-13T04:17:03.518Z,7.80
2019-05-13T04:19:34.261Z,7.80
2019-05-13T04:22:03.379Z,7.80
2019-05-13T04:24:33.578Z,7.80
2019-05-13T04:27:03.410Z,7.80
2019-05-13T04:29:33.217Z,7.80
2019-05-13T04:32:02.725Z,7.80
2019-05-13T04:34:33.633Z,7.80
2019-05-13T04:37:03.192Z,7.80
2019-05-13T04:39:45.239Z,7.80
2019-05-13T04:42:03.819Z,7.80
2019-05-13T04:44:33.155Z,7.80
2019-05-13T04:47:03.549Z,7.80
2019-05-13T04:49:32.931Z,7.70
2019-05-13T04:52:03.435Z,7.80
2019-05-13T04:54:33.540Z,7.80
2019-05-13T04:57:03.454Z,7.80
2019-05-13T04:59:34.086Z,7.90
2019-05-13T05:02:22.345Z,7.90
2019-05-13T05:05:05.854Z,8.00
2019-05-13T05:08:03.183Z,7.90
2019-05-13T05:10:42.735Z,8.00
2019-05-13T05:13:35.689Z,8.00
2019-05-13T05:16:23.981Z,8.00
2019-05-13T05:19:15.482Z,8.00
2019-05-13T05:22:03.700Z,8.20
2019-05-13T05:24:52.044Z,8.20
2019-05-13T05:27:45.322Z,8.20
2019-05-13T05:30:41.207Z,8.20
2019-05-13T05:33:34.290Z,8.20
2019-05-13T05:36:05.960Z,8.10
2019-05-13T05:38:43.569Z,8.10
2019-05-13T05:41:15.623Z,8.00
2019-05-13T05:43:45.545Z,8.00
2019-05-13T05:46:15.155Z,8.00
2019-05-13T05:48:49.840Z,8.00
2019-05-13T05:51:19.317Z,8.10
2019-05-13T05:53:51.735Z,8.20
2019-05-13T05:56:23.414Z,8.40
2019-05-13T05:58:53.980Z,8.80
2019-05-13T06:01:24.454Z,9.10
2019-05-13T06:03:57.133Z,9.20
2019-05-13T06:06:25.964Z,9.30
2019-05-13T06:08:55.037Z,9.50
2019-05-13T06:11:23.743Z,9.50
2019-05-13T06:13:54.622Z,9.60
2019-05-13T06:16:24.178Z,9.60
2019-05-13T06:18:53.248Z,9.60
2019-05-13T06:21:22.018Z,9.60
2019-05-13T06:23:51.915Z,9.70
2019-05-13T06:26:23.674Z,9.80
2019-05-13T06:28:52.163Z,9.90
2019-05-13T06:31:21.715Z,10.10
2019-05-13T06:33:51.558Z,10.30
2019-05-13T06:36:22.150Z,10.90
2019-05-13T06:38:51.573Z,11.60
2019-05-13T06:41:21.986Z,12.20
2019-05-13T06:43:52.393Z,12.60
2019-05-13T06:46:21.882Z,13.30
2019-05-13T06:48:52.191Z,13.30
2019-05-13T06:51:22.227Z,13.50
2019-05-13T06:53:51.906Z,14.00
2019-05-13T06:56:21.773Z,14.20
2019-05-13T06:58:51.987Z,14.20
2019-05-13T07:01:21.705Z,14.50
2019-05-13T07:03:51.796Z,14.30
2019-05-13T07:06:21.787Z,14.40
2019-05-13T07:08:52.108Z,14.60
2019-05-13T07:11:24.062Z,14.40
2019-05-13T07:13:51.705Z,14.60
2019-05-13T07:16:22.332Z,15.20
2019-05-13T07:18:52.250Z,15.80
2019-05-13T07:21:21.787Z,16.40
2019-05-13T07:23:54.215Z,16.50
2019-05-13T07:26:22.121Z,16.80
2019-05-13T07:28:52.566Z,17.10
2019-05-13T07:31:21.944Z,17.20
2019-05-13T07:33:51.831Z,17.20
2019-05-13T07:36:22.575Z,17.10
2019-05-13T07:38:52.610Z,17.20
2019-05-13T07:41:35.605Z,17.40
2019-05-13T07:43:52.172Z,17.60
2019-05-13T07:46:21.774Z,18.00
2019-05-13T07:48:52.109Z,18.40
2019-05-13T07:51:22.145Z,18.20
2019-05-13T07:53:51.891Z,18.00
2019-05-13T07:56:21.861Z,17.70
2019-05-13T07:58:52.353Z,17.70
2019-05-13T08:01:22.343Z,17.50
2019-05-13T08:03:51.667Z,17.40
2019-05-13T08:06:22.055Z,17.10
2019-05-13T08:08:52.355Z,17.10
2019-05-13T08:11:22.386Z,17.20
2019-05-13T08:13:51.882Z,17.20
2019-05-13T08:16:22.306Z,17.10
2019-05-13T08:18:52.357Z,17.00
2019-05-13T08:21:21.647Z,17.10
2019-05-13T08:23:52.539Z,17.30
2019-05-13T08:26:21.960Z,17.30
2019-05-13T08:29:00.484Z,17.00
2019-05-13T08:31:21.791Z,17.30
2019-05-13T08:33:51.854Z,17.00
2019-05-13T08:36:23.469Z,17.20
2019-05-13T08:38:52.143Z,17.10
2019-05-13T08:41:23.473Z,17.20
2019-05-13T08:43:52.367Z,17.10
2019-05-13T08:46:22.007Z,17.30
2019-05-13T08:48:51.779Z,17.10
2019-05-13T08:51:22.086Z,17.10
2019-05-13T08:53:51.668Z,17.20
2019-05-13T08:56:21.762Z,17.10
2019-05-13T08:58:52.103Z,17.20
2019-05-13T09:01:22.701Z,16.80
2019-05-13T09:03:52.324Z,16.70
2019-05-13T09:06:22.097Z,17.00
2019-05-13T09:08:53.749Z,17.10
2019-05-13T09:11:22.690Z,16.80
2019-05-13T09:13:51.782Z,16.70
2019-05-13T09:16:21.534Z,16.90
2019-05-13T09:18:52.012Z,17.10
2019-05-13T09:21:22.492Z,17.50
2019-05-13T09:23:51.848Z,18.00
2019-05-13T09:26:22.550Z,18.50
2019-05-13T09:28:52.120Z,19.00
2019-05-13T09:31:22.201Z,19.50
2019-05-13T09:33:52.084Z,19.30
2019-05-13T09:36:21.867Z,19.80
2019-05-13T09:38:52.478Z,20.10
2019-05-13T09:41:21.987Z,20.40
2019-05-13T09:43:51.513Z,20.30
2019-05-13T09:46:22.738Z,20.80
2019-05-13T09:48:51.774Z,21.30
2019-05-13T09:51:21.675Z,21.30
2019-05-13T09:53:51.945Z,22.50
2019-05-13T09:56:22.374Z,22.00
2019-05-13T09:58:51.604Z,21.80
2019-05-13T10:01:22.603Z,22.00
2019-05-13T10:03:55.001Z,21.90
2019-05-13T10:06:22.335Z,21.70
2019-05-13T10:08:52.729Z,21.80
2019-05-13T10:11:21.966Z,22.20
2019-05-13T10:13:51.654Z,22.50
2019-05-13T10:16:22.087Z,22.60
2019-05-13T10:18:52.452Z,22.90
2019-05-13T10:21:22.035Z,22.70
2019-05-13T10:23:52.082Z,22.20
2019-05-13T10:26:22.647Z,21.40
2019-05-13T10:28:52.762Z,20.70
2019-05-13T10:31:22.097Z,20.30
2019-05-13T10:33:51.583Z,20.10
2019-05-13T10:36:22.266Z,19.80
2019-05-13T10:38:52.505Z,19.50
2019-05-13T10:41:22.321Z,19.50
2019-05-13T10:43:52.049Z,19.30
2019-05-13T10:46:22.081Z,19.20
2019-05-13T10:48:52.737Z,19.10
2019-05-13T10:51:22.483Z,19.10
2019-05-13T10:53:54.582Z,19.00
2019-05-13T10:56:22.629Z,18.70
2019-05-13T10:58:53.397Z,18.70
2019-05-13T11:01:23.027Z,18.60
2019-05-13T11:03:52.421Z,18.60
2019-05-13T11:06:22.120Z,18.50
2019-05-13T11:08:53.230Z,18.50
2019-05-13T11:11:22.102Z,18.50
2019-05-13T11:13:58.861Z,18.50
2019-05-13T11:16:22.698Z,18.70
2019-05-13T11:18:52.267Z,18.70
2019-05-13T11:21:22.181Z,18.70
2019-05-13T11:23:51.814Z,18.60
2019-05-13T11:26:22.264Z,18.40
2019-05-13T11:28:52.172Z,18.30
2019-05-13T11:31:22.481Z,18.10
2019-05-13T11:33:52.340Z,18.00
2019-05-13T11:36:23.387Z,17.80
2019-05-13T11:38:53.101Z,17.50
2019-05-13T11:41:23.057Z,17.50
2019-05-13T11:44:09.209Z,17.40
2019-05-13T11:46:22.821Z,17.30
2019-05-13T11:48:52.536Z,17.20
2019-05-13T11:51:24.027Z,17.20
2019-05-13T11:53:53.089Z,17.20
2019-05-13T11:56:23.113Z,17.30
2019-05-13T11:58:53.301Z,17.40
2019-05-13T12:01:23.202Z,17.50
2019-05-13T12:03:53.164Z,17.60
2019-05-13T12:06:23.621Z,17.80
2019-05-13T12:08:55.272Z,17.70
2019-05-13T12:11:23.278Z,17.90
2019-05-13T12:13:52.791Z,17.80
2019-05-13T12:16:22.880Z,18.00
2019-05-13T12:18:52.827Z,18.10
2019-05-13T12:21:22.098Z,18.20
2019-05-13T12:23:52.753Z,18.40
2019-05-13T12:26:23.823Z,18.50
2019-05-13T12:28:53.560Z,18.70
2019-05-13T12:31:23.013Z,18.90
2019-05-13T12:33:52.597Z,19.00
2019-05-13T12:36:23.616Z,19.10
2019-05-13T12:38:53.847Z,19.10
2019-05-13T12:41:23.311Z,19.30
2019-05-13T12:43:53.951Z,19.50
2019-05-13T12:46:24.688Z,19.60
2019-05-13T12:48:53.107Z,19.50
2019-05-13T12:51:22.859Z,19.60
2019-05-13T12:53:52.755Z,19.80
2019-05-13T12:56:23.497Z,19.80
2019-05-13T12:58:52.415Z,19.70
2019-05-13T13:01:23.859Z,19.80
2019-05-13T13:03:52.182Z,19.50
2019-05-13T13:06:30.461Z,19.60
2019-05-13T13:08:52.454Z,19.50
2019-05-13T13:11:22.831Z,19.40
2019-05-13T13:13:58.888Z,19.30
2019-05-13T13:16:22.384Z,19.50
2019-05-13T13:18:52.365Z,19.30
2019-05-13T13:21:24.335Z,19.30
2019-05-13T13:23:53.079Z,19.40
2019-05-13T13:26:22.179Z,19.30
2019-05-13T13:28:55.522Z,19.40
2019-05-13T13:31:25.098Z,19.30
2019-05-13T13:33:55.474Z,19.60
2019-05-13T13:36:24.367Z,19.70
2019-05-13T13:38:56.251Z,19.50
2019-05-13T13:41:24.333Z,19.40
2019-05-13T13:43:54.061Z,19.30
2019-05-13T13:46:36.315Z,19.30
2019-05-13T13:48:55.546Z,19.70
2019-05-13T13:51:26.643Z,19.80
2019-05-13T13:53:56.698Z,19.50
2019-05-13T13:56:25.790Z,19.40
2019-05-13T13:58:54.502Z,19.40
2019-05-13T14:01:27.249Z,19.40
2019-05-13T14:03:54.323Z,19.40
2019-05-13T14:07:22.470Z,19.20
2019-05-13T14:08:54.421Z,19.00
2019-05-13T14:11:23.427Z,19.10
2019-05-13T14:13:52.626Z,19.10
2019-05-13T14:16:29.207Z,19.50
2019-05-13T14:18:52.735Z,19.40
2019-05-13T14:21:22.131Z,19.50
2019-05-13T14:23:51.975Z,19.50
2019-05-13T14:26:22.152Z,19.40
2019-05-13T14:28:53.650Z,19.00
2019-05-13T14:31:21.677Z,18.80
2019-05-13T14:33:51.971Z,18.70
2019-05-13T14:36:23.107Z,19.20
2019-05-13T14:38:52.688Z,19.90
2019-05-13T14:41:22.101Z,20.10
2019-05-13T14:43:51.645Z,20.50
2019-05-13T14:46:30.608Z,20.80
2019-05-13T14:48:51.347Z,21.00
2019-05-13T14:51:21.863Z,21.20
2019-05-13T14:53:52.122Z,21.00
2019-05-13T14:56:22.170Z,20.80
2019-05-13T14:58:52.058Z,20.30
2019-05-13T15:01:22.741Z,20.40
2019-05-13T15:03:52.132Z,20.00
2019-05-13T15:06:22.235Z,20.10
2019-05-13T15:08:52.646Z,20.20
2019-05-13T15:11:22.338Z,20.30
2019-05-13T15:13:51.850Z,19.80
2019-05-13T15:16:22.404Z,20.00
2019-05-13T15:18:52.468Z,20.00
2019-05-13T15:21:21.796Z,19.90
2019-05-13T15:23:51.829Z,19.70
2019-05-13T15:26:22.314Z,19.70
2019-05-13T15:28:52.200Z,19.40
2019-05-13T15:31:22.250Z,19.20
2019-05-13T15:33:52.412Z,19.10
2019-05-13T15:36:22.626Z,19.00
2019-05-13T15:38:51.948Z,18.80
2019-05-13T15:41:21.472Z,18.60
2019-05-13T15:44:08.774Z,18.30
2019-05-13T15:46:21.987Z,17.90
2019-05-13T15:48:51.515Z,17.80
2019-05-13T15:51:22.070Z,17.90
2019-05-13T15:53:52.144Z,18.00
2019-05-13T15:56:22.380Z,18.00
2019-05-13T15:58:52.920Z,17.90
2019-05-13T16:01:22.950Z,17.90
2019-05-13T16:03:52.686Z,17.80
2019-05-13T16:06:21.671Z,17.80
2019-05-13T16:08:51.841Z,17.80
2019-05-13T16:11:22.142Z,18.00
2019-05-13T16:13:51.925Z,17.90
2019-05-13T16:16:21.994Z,18.10
2019-05-13T16:18:51.705Z,18.00
2019-05-13T16:21:20.994Z,17.70
2019-05-13T16:23:51.488Z,17.70
2019-05-13T16:26:22.466Z,17.70
2019-05-13T16:28:52.228Z,17.70
2019-05-13T16:31:20.901Z,17.80
2019-05-13T16:33:52.099Z,17.80
2019-05-13T16:36:22.125Z,17.90
2019-05-13T16:38:51.432Z,18.00
2019-05-13T16:41:22.224Z,18.10
2019-05-13T16:43:50.965Z,18.00
2019-05-13T16:46:21.429Z,18.00
2019-05-13T16:48:50.530Z,18.00
2019-05-13T16:51:21.602Z,17.90
2019-05-13T16:53:52.246Z,17.90
2019-05-13T16:56:27.622Z,17.70
2019-05-13T16:58:52.149Z,17.60
2019-05-13T17:01:22.005Z,17.50
2019-05-13T17:03:51.396Z,17.30
2019-05-13T17:06:21.697Z,17.40
2019-05-13T17:08:51.622Z,17.30
2019-05-13T17:11:21.053Z,17.10
2019-05-13T17:13:51.463Z,17.10
2019-05-13T17:16:21.283Z,17.00
2019-05-13T17:18:52.085Z,17.10
2019-05-13T17:21:21.362Z,17.00
2019-05-13T17:23:52.382Z,17.00
2019-05-13T17:26:22.332Z,17.00
2019-05-13T17:28:51.894Z,16.90
2019-05-13T17:31:21.902Z,16.90
2019-05-13T17:33:51.947Z,16.70
2019-05-13T17:36:21.802Z,16.60
2019-05-13T17:38:51.192Z,16.60
2019-05-13T17:41:21.345Z,16.50
2019-05-13T17:43:51.806Z,16.40
2019-05-13T17:46:21.862Z,16.40
2019-05-13T17:48:52.065Z,16.30
2019-05-13T17:51:22.512Z,16.30
2019-05-13T17:53:52.187Z,16.10
2019-05-13T17:56:21.809Z,16.10
2019-05-13T17:58:50.998Z,16.10
2019-05-13T18:01:21.229Z,16.10
2019-05-13T18:03:51.788Z,16.00
2019-05-13T18:06:20.853Z,16.00
2019-05-13T18:08:51.786Z,16.00
2019-05-13T18:11:21.905Z,15.90
2019-05-13T18:13:51.846Z,15.80
2019-05-13T18:16:21.860Z,15.70
2019-05-13T18:18:52.190Z,15.70
2019-05-13T18:21:21.284Z,15.60
2019-05-13T18:23:52.159Z,15.60
2019-05-13T18:26:21.656Z,15.50
2019-05-13T18:28:51.465Z,15.50
2019-05-13T18:31:20.540Z,15.40
2019-05-13T18:33:51.117Z,15.30
2019-05-13T18:36:22.117Z,15.30
2019-05-13T18:38:50.098Z,15.30
2019-05-13T18:41:21.171Z,15.20
2019-05-13T18:43:52.807Z,15.20
2019-05-13T18:46:21.740Z,15.10
2019-05-13T18:48:58.775Z,15.00
2019-05-13T18:51:21.198Z,14.90
2019-05-13T18:53:51.898Z,14.80
2019-05-13T18:56:21.950Z,14.70
2019-05-13T18:58:51.136Z,14.60
2019-05-13T19:01:21.581Z,14.40
2019-05-13T19:03:50.569Z,14.40
2019-05-13T19:06:22.199Z,14.30
2019-05-13T19:08:52.676Z,14.20
2019-05-13T19:11:22.292Z,14.20
2019-05-13T19:13:52.186Z,14.20
2019-05-13T19:16:21.414Z,14.10
2019-05-13T19:18:50.959Z,14.20
2019-05-13T19:21:21.734Z,14.20
2019-05-13T19:23:52.085Z,14.20
2019-05-13T19:26:21.820Z,14.20
2019-05-13T19:28:51.647Z,14.10
2019-05-13T19:31:22.104Z,14.20
2019-05-13T19:33:52.096Z,14.20
2019-05-13T19:36:21.149Z,14.20
2019-05-13T19:38:51.272Z,14.20
2019-05-13T19:41:22.226Z,14.10
2019-05-13T19:43:51.548Z,14.10
2019-05-13T19:46:20.671Z,14.10
2019-05-13T19:48:49.421Z,14.10
2019-05-13T19:51:18.107Z,14.10
2019-05-13T19:53:46.835Z,14.00
2019-05-13T19:56:15.926Z,14.00
2019-05-13T19:58:44.667Z,14.00
2019-05-13T20:01:13.442Z,14.00
2019-05-13T20:03:42.551Z,14.00
2019-05-13T20:06:12.341Z,14.00
2019-05-13T20:08:41.723Z,14.00
2019-05-13T20:11:11.440Z,14.00
2019-05-13T20:13:41.847Z,14.00
2019-05-13T20:16:11.949Z,14.00
2019-05-13T20:18:41.556Z,14.00
2019-05-13T20:21:13.392Z,14.00
2019-05-13T20:23:41.417Z,14.00
2019-05-13T20:26:10.480Z,14.00
2019-05-13T20:28:41.844Z,13.90
2019-05-13T20:31:11.124Z,13.90
2019-05-13T20:33:42.874Z,13.80
2019-05-13T20:36:11.850Z,13.70
2019-05-13T20:38:41.312Z,13.70
2019-05-13T20:41:11.646Z,13.60
2019-05-13T20:43:42.549Z,13.60
2019-05-13T20:46:12.208Z,13.50
2019-05-13T20:48:41.240Z,13.50
2019-05-13T20:51:11.386Z,13.50
2019-05-13T20:53:41.325Z,13.40
2019-05-13T20:56:10.630Z,13.30
2019-05-13T20:58:42.020Z,13.30
2019-05-13T21:01:11.167Z,13.20
2019-05-13T21:03:42.004Z,13.20
2019-05-13T21:06:11.714Z,13.20
2019-05-13T21:08:41.464Z,13.20
2019-05-13T21:11:11.515Z,13.10
2019-05-13T21:13:41.368Z,13.10
2019-05-13T21:16:11.411Z,13.00
2019-05-13T21:18:42.069Z,13.00
2019-05-13T21:21:11.785Z,12.90
2019-05-13T21:23:41.770Z,12.90
2019-05-13T21:26:15.044Z,12.80
2019-05-13T21:28:42.023Z,12.80
2019-05-13T21:31:11.363Z,12.80
2019-05-13T21:33:40.638Z,12.70
2019-05-13T21:36:12.102Z,12.60
2019-05-13T21:38:40.545Z,12.50
2019-05-13T21:41:11.627Z,12.30
2019-05-13T21:43:41.443Z,12.10
2019-05-13T21:46:12.036Z,12.00
2019-05-13T21:48:41.785Z,11.80
2019-05-13T21:51:13.229Z,11.80
2019-05-13T21:53:41.395Z,11.50
2019-05-13T21:56:12.207Z,11.40
2019-05-13T21:58:41.889Z,11.40
2019-05-13T22:01:10.991Z,11.30
2019-05-13T22:03:42.014Z,11.20
2019-05-13T22:06:11.051Z,11.20
2019-05-13T22:08:41.303Z,11.10
2019-05-13T22:11:12.068Z,11.10
2019-05-13T22:13:42.057Z,11.00
2019-05-13T22:16:11.178Z,10.90
2019-05-13T22:18:41.786Z,10.90
2019-05-13T22:21:11.862Z,10.90
2019-05-13T22:23:41.279Z,10.80
2019-05-13T22:26:11.644Z,10.70
2019-05-13T22:28:41.765Z,10.70
2019-05-13T22:31:11.684Z,10.60
2019-05-13T22:33:41.392Z,10.60
2019-05-13T22:36:11.819Z,10.60
2019-05-13T22:38:42.663Z,10.70
2019-05-13T22:41:12.209Z,10.80
2019-05-13T22:43:54.407Z,10.80
2019-05-13T22:46:13.950Z,10.80
2019-05-13T22:48:42.033Z,10.80
2019-05-13T22:51:11.791Z,10.70
2019-05-13T22:53:42.212Z,10.70
2019-05-13T22:56:11.703Z,10.70
2019-05-13T22:58:41.279Z,10.70
2019-05-13T23:01:11.535Z,10.70
2019-05-13T23:03:41.287Z,10.60
2019-05-13T23:06:12.088Z,10.50
2019-05-13T23:08:40.727Z,10.50
2019-05-13T23:11:09.449Z,10.50
2019-05-13T23:14:07.354Z,10.50
2019-05-13T23:16:28.147Z,10.40
2019-05-13T23:18:57.227Z,10.40
2019-05-13T23:21:25.997Z,10.30
2019-05-13T23:23:54.742Z,10.30
2019-05-13T23:26:23.487Z,10.20
2019-05-13T23:28:52.590Z,10.20
2019-05-13T23:31:21.705Z,10.20
2019-05-13T23:33:50.798Z,10.20
2019-05-13T23:36:21.111Z,10.10
2019-05-13T23:38:51.668Z,10.10
2019-05-13T23:41:21.821Z,10.00
2019-05-13T23:43:50.951Z,9.90
2019-05-13T23:46:22.080Z,9.90
2019-05-13T23:48:52.032Z,9.80
2019-05-13T23:51:21.608Z,9.80
2019-05-13T23:53:51.119Z,9.80
2019-05-13T23:56:21.727Z,9.80
2019-05-13T23:58:51.896Z,9.80
